Bella Vita — ZGAG5 — position and weather

sailwx.info

Track history (hours):
 
Tides and Currents Weather Stations Pressure Air Temp Water Temp Dewpoint Dewpoint Depression Visibility Wind Speed Wind Dir Waves Ship Positions

Bella Vita

Last reported at 2016-Nov-12 17:23 UTC. Time now 2016-Dec-05 08:28 UTC.
Position N 26°06' W 080°05'.
Warning: this ship's position is 22 days out of date.

Length 45 m; draft 2.7 m.

Type: Pleasure craft. MMSI: 319016600.

Date/timePositionNaut miles runAvg speedWind from/ knotsBaromVisibWave heightAir tempDewpointWater temp
2016-Nov-12 17:23N 26°06' W 080°05'4 4.2
2016-Nov-12 16:32N 26°06' W 080°10'1 0.4
2016-Nov-12 13:22N 26°05' W 080°10'0 0.0
2016-Nov-12 12:22N 26°05' W 080°10'0 0.0
2016-Nov-12 11:25N 26°05' W 080°10'0 0.0
2016-Nov-12 09:25N 26°05' W 080°10'0 0.0
2016-Nov-12 06:28N 26°05' W 080°10'0 0.0
2016-Nov-12 03:31N 26°05' W 080°10'0 0.0
2016-Nov-12 02:31N 26°05' W 080°10'0 0.0
2016-Nov-12 00:31N 26°05' W 080°10'0 0.0
2016-Nov-11 23:31N 26°05' W 080°10'0 0.0
2016-Nov-11 19:25N 26°05' W 080°10'0 0.0
2016-Nov-11 15:25N 26°05' W 080°10'  
2016-Nov-05 21:32N 26°24' W 080°03'1112.7
2016-Nov-05 20:43N 26°13' W 080°03'212.9
2016-Nov-05 20:33N 26°11' W 080°04'8 2.1
2016-Nov-05 16:32N 26°05' W 080°10'0 0.0
2016-Nov-05 12:26N 26°05' W 080°10'0 0.0
2016-Nov-05 11:26N 26°05' W 080°10'0 0.0
2016-Nov-05 10:26N 26°05' W 080°10'0 0.0
2016-Nov-05 09:26N 26°05' W 080°10'0 0.0
2016-Nov-05 08:29N 26°05' W 080°10'0 0.0
2016-Nov-05 07:29N 26°05' W 080°10'0 0.0
2016-Nov-05 04:32N 26°05' W 080°10'0 0.0
2016-Nov-05 02:32N 26°05' W 080°10'0 0.0
2016-Nov-05 01:32N 26°05' W 080°10'0 0.0
2016-Nov-04 23:23N 26°05' W 080°10'0 0.0
2016-Nov-04 22:26N 26°05' W 080°10'0 0.0
2016-Nov-04 21:26N 26°05' W 080°10'0 0.0
2016-Nov-04 20:26N 26°05' W 080°10'0 0.0
2016-Nov-04 18:29N 26°05' W 080°10'0 0.0
2016-Nov-04 16:32N 26°05' W 080°10'0 0.0
2016-Nov-04 14:32N 26°05' W 080°10'0 0.0
2016-Nov-04 12:32N 26°05' W 080°10'0 0.0
2016-Nov-04 08:26N 26°05' W 080°10'0 0.0
2016-Nov-04 07:26N 26°05' W 080°10'0 0.0
2016-Nov-04 06:26N 26°05' W 080°10'  
Track history (hours):
 
Tides and Currents Weather Stations Pressure Air Temp Water Temp Dewpoint Dewpoint Depression Visibility Wind Speed Wind Dir Waves Ship Positions

Bella Vita

Last reported at 2016-Nov-12 17:23 UTC. Time now 2016-Dec-05 08:28 UTC.
Position N 26°06' W 080°05'.
Warning: this ship's position is 22 days out of date.

Length 45 m; draft 2.7 m.

Type: Pleasure craft. MMSI: 319016600.

Date/timePositionNaut miles runAvg speedWind from/ knotsBaromVisibWave heightAir tempDewpointWater temp
2016-Nov-12 17:23N 26°06' W 080°05'4 4.2
2016-Nov-12 16:32N 26°06' W 080°10'1 0.4
2016-Nov-12 13:22N 26°05' W 080°10'0 0.0
2016-Nov-12 12:22N 26°05' W 080°10'0 0.0
2016-Nov-12 11:25N 26°05' W 080°10'0 0.0
2016-Nov-12 09:25N 26°05' W 080°10'0 0.0
2016-Nov-12 06:28N 26°05' W 080°10'0 0.0
2016-Nov-12 03:31N 26°05' W 080°10'0 0.0
2016-Nov-12 02:31N 26°05' W 080°10'0 0.0
2016-Nov-12 00:31N 26°05' W 080°10'0 0.0
2016-Nov-11 23:31N 26°05' W 080°10'0 0.0
2016-Nov-11 19:25N 26°05' W 080°10'0 0.0
2016-Nov-11 15:25N 26°05' W 080°10'  
2016-Nov-05 21:32N 26°24' W 080°03'1112.7
2016-Nov-05 20:43N 26°13' W 080°03'212.9
2016-Nov-05 20:33N 26°11' W 080°04'8 2.1
2016-Nov-05 16:32N 26°05' W 080°10'0 0.0
2016-Nov-05 12:26N 26°05' W 080°10'0 0.0
2016-Nov-05 11:26N 26°05' W 080°10'0 0.0
2016-Nov-05 10:26N 26°05' W 080°10'0 0.0
2016-Nov-05 09:26N 26°05' W 080°10'0 0.0
2016-Nov-05 08:29N 26°05' W 080°10'0 0.0
2016-Nov-05 07:29N 26°05' W 080°10'0 0.0
2016-Nov-05 04:32N 26°05' W 080°10'0 0.0
2016-Nov-05 02:32N 26°05' W 080°10'0 0.0
2016-Nov-05 01:32N 26°05' W 080°10'0 0.0
2016-Nov-04 23:23N 26°05' W 080°10'0 0.0
2016-Nov-04 22:26N 26°05' W 080°10'0 0.0
2016-Nov-04 21:26N 26°05' W 080°10'0 0.0
2016-Nov-04 20:26N 26°05' W 080°10'0 0.0
2016-Nov-04 18:29N 26°05' W 080°10'0 0.0
2016-Nov-04 16:32N 26°05' W 080°10'0 0.0
2016-Nov-04 14:32N 26°05' W 080°10'0 0.0
2016-Nov-04 12:32N 26°05' W 080°10'0 0.0
2016-Nov-04 08:26N 26°05' W 080°10'0 0.0
2016-Nov-04 07:26N 26°05' W 080°10'0 0.0
2016-Nov-04 06:26N 26°05' W 080°10'  

Dump ship's entire track history